Time;durP1;ratioP1;P1;durP2;ratioP2;P2;SDS_P1;SDS_P2;PMS_P1;PMS_P2;Temp;Humidity;BMP_temperature;BMP_pressure;BME280_temperature;BME280_humidity;BME280_pressure;Samples;Min_cycle;Max_cycle;Signal;HPM_P1;HPM_P2
2021/11/18 00:00:41;;;;;;;12.73;4.53;;;7.30;99.90;;;;;;5015180;28;20505;-61
2021/11/18 00:03:10;;;;;;;14.10;4.60;;;7.40;99.90;;;;;;5015062;28;20034;-61
2021/11/18 00:05:35;;;;;;;12.90;4.63;;;7.30;99.90;;;;;;5015075;28;20061;-61
2021/11/18 00:08:02;;;;;;;14.55;5.25;;;7.30;99.90;;;;;;5014722;28;20449;-61
2021/11/18 00:11:05;;;;;;;12.63;5.38;;;7.30;99.90;;;;;;5014659;28;20046;-61
2021/11/18 00:13:33;;;;;;;11.73;4.75;;;7.30;99.90;;;;;;4935278;29;20032;-61
2021/11/18 00:16:00;;;;;;;11.70;4.63;;;7.20;99.90;;;;;;5001034;28;20088;-61
2021/11/18 00:18:28;;;;;;;13.40;5.22;;;7.30;99.90;;;;;;5014129;28;20037;-61
2021/11/18 00:21:14;;;;;;;10.52;4.63;;;7.20;99.90;;;;;;4997330;28;20033;-61
2021/11/18 00:23:47;;;;;;;11.25;5.38;;;7.30;99.90;;;;;;5014654;28;20037;-61
2021/11/18 00:26:14;;;;;;;10.93;4.50;;;7.30;99.90;;;;;;5014657;28;20037;-61
2021/11/18 00:28:40;;;;;;;11.77;4.45;;;7.20;99.90;;;;;;5014630;28;20034;-61
2021/11/18 00:31:07;;;;;;;10.95;4.35;;;7.20;99.90;;;;;;5014471;28;20033;-61
2021/11/18 00:33:35;;;;;;;7.68;3.92;;;7.20;99.90;;;;;;5013855;28;20029;-61
2021/11/18 00:36:02;;;;;;;11.57;4.47;;;7.20;99.90;;;;;;5014555;28;20371;-61
2021/11/18 00:38:27;;;;;;;11.25;3.85;;;7.20;99.90;;;;;;4993924;28;20027;-61
2021/11/18 00:40:55;;;;;;;8.07;4.05;;;7.20;99.90;;;;;;5014400;28;20076;-61
2021/11/18 00:43:22;;;;;;;9.88;4.45;;;7.20;99.90;;;;;;5014110;28;20029;-61
2021/11/18 00:45:49;;;;;;;11.45;4.75;;;7.20;99.90;;;;;;5014427;28;20482;-61
2021/11/18 00:48:15;;;;;;;10.38;4.68;;;7.20;99.90;;;;;;5014427;28;20037;-61
2021/11/18 00:51:09;;;;;;;11.48;4.97;;;7.20;99.90;;;;;;5014102;28;20026;-61
2021/11/18 00:53:38;;;;;;;16.45;4.70;;;7.20;99.90;;;;;;5010839;28;20080;-61
2021/11/18 00:56:04;;;;;;;;;;;7.10;99.90;;;;;;5014909;28;20466;-61
2021/11/18 00:58:30;;;;;;;10.85;5.35;;;7.10;99.90;;;;;;5014021;28;19915;-61
2021/11/18 01:00:55;;;;;;;14.15;5.68;;;7.00;99.90;;;;;;4996606;28;20025;-62
2021/11/18 01:03:22;;;;;;;14.35;5.95;;;7.00;99.90;;;;;;5014022;28;20418;-61
2021/11/18 01:05:51;;;;;;;14.07;6.60;;;7.00;99.90;;;;;;5013984;28;20467;-61
2021/11/18 01:08:17;;;;;;;16.67;6.28;;;7.00;99.90;;;;;;5013577;28;20096;-61
2021/11/18 01:10:47;;;;;;;17.92;6.22;;;7.00;99.90;;;;;;5013796;28;20046;-61
2021/11/18 01:13:15;;;;;;;16.00;6.22;;;7.00;99.90;;;;;;5014030;28;20029;-61
2021/11/18 01:15:43;;;;;;;11.85;5.85;;;7.00;99.90;;;;;;5013769;28;20080;-61
2021/11/18 01:18:08;;;;;;;13.43;5.95;;;7.00;99.90;;;;;;5006130;28;20045;-61
2021/11/18 01:20:35;;;;;;;11.27;6.53;;;7.00;99.90;;;;;;5013700;28;20030;-61
2021/11/18 01:23:03;;;;;;;11.52;4.82;;;6.90;99.90;;;;;;5011426;28;20053;-61
2021/11/18 01:25:30;;;;;;;18.55;6.18;;;6.90;99.90;;;;;;5013475;28;20555;-61
2021/11/18 01:27:55;;;;;;;14.32;6.32;;;7.00;99.90;;;;;;5013493;28;20085;-61
2021/11/18 01:30:25;;;;;;;11.48;5.65;;;7.00;99.90;;;;;;5013547;28;20029;-61
2021/11/18 01:32:54;;;;;;;11.32;5.07;;;7.00;99.90;;;;;;5013544;28;20486;-61
2021/11/18 01:35:20;;;;;;;9.68;4.90;;;6.90;99.90;;;;;;5013451;28;20088;-61
2021/11/18 01:37:45;;;;;;;9.55;5.05;;;6.90;99.90;;;;;;4995790;28;20029;-61
2021/11/18 01:40:17;;;;;;;7.95;5.05;;;7.00;99.90;;;;;;5013113;28;20756;-61
2021/11/18 01:42:44;;;;;;;11.77;5.82;;;7.00;99.90;;;;;;5013566;28;20030;-61
2021/11/18 01:45:12;;;;;;;11.05;5.60;;;7.00;99.90;;;;;;5012968;28;20108;-61
2021/11/18 01:47:39;;;;;;;16.85;5.53;;;7.00;99.90;;;;;;5013145;28;20030;-61
2021/11/18 01:50:07;;;;;;;14.82;6.10;;;7.00;99.90;;;;;;5013091;28;20497;-61
2021/11/18 01:52:33;;;;;;;14.25;5.75;;;7.00;99.90;;;;;;5013059;28;20056;-61
2021/11/18 01:54:59;;;;;;;17.15;6.95;;;7.00;99.90;;;;;;5012268;28;20025;-61
2021/11/18 01:57:27;;;;;;;13.05;5.93;;;7.00;99.90;;;;;;5013780;28;20025;-61
2021/11/18 01:59:54;;;;;;;10.32;5.53;;;7.00;99.90;;;;;;5013244;28;20084;-61
2021/11/18 02:02:23;;;;;;;15.30;6.68;;;7.00;99.90;;;;;;4995002;28;20028;-61
2021/11/18 02:04:53;;;;;;;13.65;5.15;;;7.00;99.90;;;;;;5012637;28;20038;-61
2021/11/18 02:07:20;;;;;;;13.95;6.20;;;7.00;99.90;;;;;;4992118;28;20030;-61
2021/11/18 02:09:48;;;;;;;11.85;5.75;;;7.00;99.90;;;;;;4994723;28;20026;-61
2021/11/18 02:12:18;;;;;;;13.02;5.47;;;7.10;99.90;;;;;;5012601;28;20034;-61
2021/11/18 02:14:44;;;;;;;13.07;5.55;;;7.10;99.90;;;;;;5012691;28;20076;-61
2021/11/18 02:17:13;;;;;;;15.40;6.10;;;7.10;99.90;;;;;;5006664;28;20026;-61
2021/11/18 02:19:48;;;;;;;15.05;5.97;;;7.10;99.90;;;;;;5010714;28;20022;-61
2021/11/18 02:22:16;;;;;;;14.70;5.95;;;7.10;99.90;;;;;;5012058;28;20029;-61
2021/11/18 02:24:47;;;;;;;15.73;6.82;;;7.10;99.90;;;;;;5012050;28;20041;-61
2021/11/18 02:27:16;;;;;;;14.73;6.90;;;7.10;99.90;;;;;;5012588;28;20042;-61
2021/11/18 02:29:47;;;;;;;13.20;5.33;;;7.10;99.90;;;;;;5011668;28;20030;-61
2021/11/18 02:32:16;;;;;;;14.88;6.97;;;7.10;99.90;;;;;;5012695;28;20028;-61
2021/11/18 02:34:44;;;;;;;13.18;6.43;;;7.10;99.90;;;;;;5012534;28;20390;-61
2021/11/18 02:37:10;;;;;;;15.20;6.13;;;7.10;99.90;;;;;;5012568;28;20028;-61
2021/11/18 02:39:36;;;;;;;13.27;6.35;;;7.10;99.90;;;;;;5012263;28;20030;-61
2021/11/18 02:42:04;;;;;;;13.10;5.40;;;7.10;99.90;;;;;;5012452;28;20095;-61
2021/11/18 02:44:31;;;;;;;11.27;5.45;;;7.20;99.90;;;;;;5012117;28;20056;-61
2021/11/18 02:46:58;;;;;;;11.27;5.80;;;7.20;99.90;;;;;;5012448;28;20033;-61
2021/11/18 02:49:23;;;;;;;14.02;6.03;;;7.20;99.90;;;;;;5012393;28;20018;-61
2021/11/18 02:51:49;;;;;;;10.48;5.07;;;7.30;99.90;;;;;;5012309;28;20034;-61
2021/11/18 02:54:15;;;;;;;12.05;5.85;;;7.30;99.90;;;;;;5012590;28;20022;-61
2021/11/18 02:56:41;;;;;;;13.00;5.97;;;7.30;99.90;;;;;;5011951;28;20033;-61
2021/11/18 02:59:07;;;;;;;13.57;7.20;;;7.30;99.90;;;;;;5012255;28;20426;-61
2021/11/18 03:01:38;;;;;;;16.48;6.93;;;7.30;99.90;;;;;;5012274;28;20014;-61
2021/11/18 03:04:04;;;;;;;16.15;7.18;;;7.30;99.90;;;;;;5011395;28;20022;-61
2021/11/18 03:06:30;;;;;;;13.43;5.72;;;7.20;99.90;;;;;;5012012;28;20022;-61
2021/11/18 03:08:56;;;;;;;17.70;6.28;;;7.20;99.90;;;;;;5012256;28;20026;-61
2021/11/18 03:11:23;;;;;;;10.55;6.43;;;7.30;99.90;;;;;;5011726;28;20087;-61
2021/11/18 03:13:49;;;;;;;22.98;7.90;;;7.30;99.90;;;;;;5014471;28;20044;-61
2021/11/18 03:16:15;;;;;;;22.75;8.18;;;7.30;99.90;;;;;;5016073;28;20014;-61
2021/11/18 03:18:42;;;;;;;21.45;8.10;;;7.30;99.90;;;;;;5014568;28;20026;-61
2021/11/18 03:21:12;;;;;;;14.65;7.05;;;7.30;99.90;;;;;;4997758;28;20026;-61
2021/11/18 03:23:38;;;;;;;16.13;6.65;;;7.30;99.90;;;;;;5015083;28;20022;-61
2021/11/18 03:26:05;;;;;;;15.23;6.50;;;7.30;99.90;;;;;;5015618;28;20022;-61
2021/11/18 03:28:34;;;;;;;15.35;7.22;;;7.30;99.90;;;;;;5015618;28;20041;-61
2021/11/18 03:31:05;;;;;;;18.17;6.87;;;7.30;99.90;;;;;;5015787;28;20029;-61
2021/11/18 03:33:45;;;;;;;17.45;7.57;;;7.30;99.90;;;;;;5015744;28;20030;-61
2021/11/18 03:36:11;;;;;;;13.63;6.70;;;7.30;99.90;;;;;;5015890;28;20014;-61
2021/11/18 03:38:38;;;;;;;16.13;6.97;;;7.30;99.90;;;;;;5015342;28;20277;-61
2021/11/18 03:41:04;;;;;;;14.18;7.22;;;7.30;99.90;;;;;;5015504;28;20105;-61
2021/11/18 03:43:39;;;;;;;14.57;6.85;;;7.30;99.90;;;;;;5015502;28;20022;-61
2021/11/18 03:46:05;;;;;;;19.30;8.18;;;7.30;99.90;;;;;;5013218;28;20045;-61
2021/11/18 03:48:33;;;;;;;17.15;8.02;;;7.30;99.90;;;;;;5015390;28;20486;-61
2021/11/18 03:51:01;;;;;;;17.23;8.60;;;7.30;99.90;;;;;;5015283;28;20108;-61
2021/11/18 03:53:48;;;;;;;20.50;8.32;;;7.30;99.90;;;;;;4992949;28;20106;-61
2021/11/18 03:56:18;;;;;;;14.95;8.80;;;7.30;99.90;;;;;;5015537;28;20430;-61
2021/11/18 03:58:44;;;;;;;;;;;7.30;99.90;;;;;;5015561;28;20045;-61
2021/11/18 04:01:09;;;;;;;19.48;8.15;;;7.20;99.90;;;;;;5015506;28;19909;-61
2021/11/18 04:03:36;;;;;;;18.25;8.02;;;7.20;99.90;;;;;;5006546;28;20489;-61
2021/11/18 04:06:03;;;;;;;17.05;7.70;;;7.30;99.90;;;;;;5015153;28;20425;-61
2021/11/18 04:08:29;;;;;;;20.98;7.97;;;7.30;99.90;;;;;;5008129;28;20022;-62
2021/11/18 04:10:54;;;;;;;19.80;9.60;;;7.30;99.90;;;;;;5014864;28;20497;-61
2021/11/18 04:13:20;;;;;;;20.35;8.38;;;7.40;99.90;;;;;;5014973;28;20033;-61
2021/11/18 04:15:49;;;;;;;17.48;8.40;;;7.40;99.90;;;;;;5015157;28;20038;-62
2021/11/18 04:18:17;;;;;;;20.30;9.00;;;7.40;99.90;;;;;;4985458;28;20033;-61
2021/11/18 04:20:42;;;;;;;18.67;9.18;;;7.40;99.90;;;;;;5014784;28;20064;-64
2021/11/18 04:23:08;;;;;;;19.98;9.73;;;7.40;99.90;;;;;;5014631;28;20066;-61
2021/11/18 04:25:36;;;;;;;20.15;9.25;;;7.40;99.90;;;;;;4996517;28;20041;-61
2021/11/18 04:28:04;;;;;;;20.73;8.48;;;7.40;99.90;;;;;;5014334;28;20048;-61
2021/11/18 04:30:45;;;;;;;21.35;8.75;;;7.40;99.90;;;;;;5014469;28;20470;-61
2021/11/18 04:33:11;;;;;;;19.20;9.80;;;7.50;99.90;;;;;;4997236;28;20033;-61
2021/11/18 04:35:37;;;;;;;20.83;9.15;;;7.40;99.90;;;;;;5013231;28;20026;-61
2021/11/18 04:38:03;;;;;;;20.52;9.30;;;7.40;99.90;;;;;;5014623;28;20022;-61
2021/11/18 04:41:06;;;;;;;19.75;8.73;;;7.50;99.90;;;;;;5014311;28;20034;-61
2021/11/18 04:43:31;;;;;;;17.15;8.38;;;7.50;99.90;;;;;;5014209;28;20080;-61
2021/11/18 04:45:57;;;;;;;22.75;8.95;;;7.50;99.90;;;;;;4996990;28;20486;-61
2021/11/18 04:48:23;;;;;;;22.75;10.18;;;7.50;99.90;;;;;;5014184;28;20033;-61
2021/11/18 04:50:50;;;;;;;28.05;9.73;;;7.50;99.90;;;;;;5014190;28;20073;-61
2021/11/18 04:53:16;;;;;;;26.33;10.05;;;7.50;99.90;;;;;;5014309;28;20030;-61
2021/11/18 04:55:44;;;;;;;27.90;10.40;;;7.50;99.90;;;;;;5013962;28;20136;-61
2021/11/18 04:58:11;;;;;;;26.10;10.32;;;7.50;99.90;;;;;;5013889;28;20026;-61
2021/11/18 05:00:40;;;;;;;24.73;10.70;;;7.50;99.90;;;;;;5013916;28;20029;-61
2021/11/18 05:03:07;;;;;;;23.80;10.43;;;7.50;99.90;;;;;;5012394;28;20497;-61
2021/11/18 05:05:33;;;;;;;30.02;10.93;;;7.50;99.90;;;;;;5013950;28;20034;-61
2021/11/18 05:07:59;;;;;;;22.92;10.38;;;7.50;99.90;;;;;;5013811;28;20021;-61
2021/11/18 05:10:25;;;;;;;25.77;11.00;;;7.50;99.90;;;;;;5013659;28;20049;-61
2021/11/18 05:12:51;;;;;;;31.10;11.43;;;7.50;99.90;;;;;;5013937;28;20025;-61
2021/11/18 05:15:19;;;;;;;28.05;10.98;;;7.50;99.90;;;;;;5013422;28;20061;-62
2021/11/18 05:17:47;;;;;;;31.75;11.65;;;7.50;99.90;;;;;;5012946;28;20026;-61
2021/11/18 05:20:15;;;;;;;25.83;10.77;;;7.60;99.90;;;;;;5013727;28;20040;-61
2021/11/18 05:22:41;;;;;;;32.22;12.52;;;7.60;99.90;;;;;;4996072;28;20088;-61
2021/11/18 05:25:08;;;;;;;28.42;10.98;;;7.60;99.90;;;;;;5013661;28;20080;-61
2021/11/18 05:27:34;;;;;;;27.95;11.32;;;7.60;99.90;;;;;;4995842;28;20030;-61
2021/11/18 05:29:59;;;;;;;25.48;11.20;;;7.60;99.90;;;;;;4995747;28;20136;-61
2021/11/18 05:32:25;;;;;;;30.35;11.10;;;7.60;99.90;;;;;;4995942;28;20837;-61
2021/11/18 05:34:50;;;;;;;25.42;10.23;;;7.60;99.90;;;;;;4995630;28;20026;-61
2021/11/18 05:37:16;;;;;;;23.27;10.40;;;7.70;99.90;;;;;;4995159;28;20049;-61
2021/11/18 05:39:43;;;;;;;32.90;11.65;;;7.70;99.90;;;;;;4995670;28;20030;-61
2021/11/18 05:42:09;;;;;;;30.85;10.27;;;7.70;99.90;;;;;;5013457;28;20113;-61
2021/11/18 05:44:35;;;;;;;28.60;10.40;;;7.70;99.90;;;;;;5013054;28;20026;-61
2021/11/18 05:47:00;;;;;;;31.25;11.57;;;7.70;99.90;;;;;;5013322;28;20026;-61
2021/11/18 05:49:26;;;;;;;26.48;10.25;;;7.70;99.90;;;;;;5013085;28;20382;-61
2021/11/18 05:51:51;;;;;;;29.40;9.93;;;7.70;99.90;;;;;;5013139;28;20091;-61
2021/11/18 05:54:17;;;;;;;23.88;9.90;;;7.80;99.90;;;;;;5013324;28;20076;-61
2021/11/18 05:56:43;;;;;;;26.58;10.10;;;7.80;99.90;;;;;;4995318;28;20386;-61
2021/11/18 05:59:36;;;;;;;31.98;12.43;;;7.80;99.90;;;;;;5012805;28;20029;-61
2021/11/18 06:02:58;;;;;;;25.63;10.38;;;7.80;99.90;;;;;;4995494;28;20022;-61
2021/11/18 06:06:04;;;;;;;30.30;12.15;;;7.80;99.90;;;;;;4932908;29;20083;-61
2021/11/18 06:08:30;;;;;;;29.77;11.15;;;7.80;99.90;;;;;;4930651;29;20039;-61
2021/11/18 06:10:56;;;;;;;29.20;11.80;;;7.80;99.90;;;;;;4961507;28;20053;-61
2021/11/18 06:13:24;;;;;;;24.23;10.90;;;7.80;99.90;;;;;;4971608;28;20491;-61
2021/11/18 06:15:50;;;;;;;32.50;11.82;;;7.80;99.90;;;;;;4971397;28;20057;-61
2021/11/18 06:18:16;;;;;;;32.60;13.25;;;7.80;99.90;;;;;;4970813;28;20507;-62
2021/11/18 06:20:42;;;;;;;28.40;11.00;;;7.80;99.90;;;;;;4971449;28;20046;-61
2021/11/18 06:23:12;;;;;;;25.77;10.93;;;7.80;99.90;;;;;;4971413;28;20027;-61
2021/11/18 06:26:01;;;;;;;30.92;11.13;;;7.80;99.90;;;;;;4971170;28;20431;-61
2021/11/18 06:28:26;;;;;;;27.83;12.07;;;7.90;99.90;;;;;;4971303;28;20035;-61
2021/11/18 06:31:05;;;;;;;31.42;10.88;;;7.90;99.90;;;;;;4969579;28;20047;-61
2021/11/18 06:33:30;;;;;;;31.00;12.07;;;7.90;99.90;;;;;;4968269;28;20106;-62
2021/11/18 06:35:56;;;;;;;26.00;11.13;;;7.90;99.90;;;;;;4982157;28;20117;-61
2021/11/18 06:38:21;;;;;;;26.42;10.48;;;7.90;99.90;;;;;;5010523;28;20065;-62
2021/11/18 06:40:49;;;;;;;26.08;11.77;;;7.90;99.90;;;;;;5010407;28;20532;-61
2021/11/18 06:43:16;;;;;;;31.90;10.48;;;7.90;99.90;;;;;;5010460;28;20030;-61
2021/11/18 06:45:45;;;;;;;30.23;10.70;;;7.90;99.90;;;;;;5010595;28;20482;-61
2021/11/18 06:48:12;;;;;;;33.05;11.50;;;7.90;99.90;;;;;;5010200;28;20029;-61
2021/11/18 06:51:22;;;;;;;32.33;11.60;;;7.90;99.90;;;;;;5010131;28;20025;-61
2021/11/18 06:53:47;;;;;;;32.22;11.77;;;7.90;99.90;;;;;;5008791;28;20046;-61
2021/11/18 06:56:25;;;;;;;30.58;12.52;;;7.90;99.90;;;;;;5010431;28;20072;-61
2021/11/18 06:58:51;;;;;;;28.95;12.55;;;7.90;99.90;;;;;;5010887;28;20030;-61
2021/11/18 07:01:17;;;;;;;25.13;10.80;;;7.90;99.90;;;;;;4992478;28;20026;-61
2021/11/18 07:03:43;;;;;;;33.28;12.05;;;7.90;99.90;;;;;;5010556;28;20049;-61
2021/11/18 07:06:12;;;;;;;32.22;12.75;;;7.90;99.90;;;;;;5010818;28;20394;-61
2021/11/18 07:08:38;;;;;;;31.00;12.38;;;7.90;99.90;;;;;;4985440;28;20041;-61
2021/11/18 07:11:04;;;;;;;31.58;12.85;;;7.80;99.90;;;;;;5010275;28;20402;-62
2021/11/18 07:13:32;;;;;;;28.73;11.90;;;7.80;99.90;;;;;;5010612;28;20025;-61
2021/11/18 07:16:04;;;;;;;31.70;13.13;;;7.80;99.90;;;;;;5010139;28;20045;-62
2021/11/18 07:19:15;;;;;;;;;;;;;;;;;;;;;
2021/11/18 07:21:41;;;;;;;32.28;13.38;;;7.90;99.90;;;;;;5007436;28;20029;-62
2021/11/18 07:24:08;;;;;;;43.05;14.40;;;7.80;99.90;;;;;;5015628;28;20120;-62
2021/11/18 07:26:37;;;;;;;34.70;12.50;;;7.80;99.90;;;;;;5016592;28;20450;-62
2021/11/18 07:29:26;;;;;;;;;;;;;;;;;;;;;
2021/11/18 07:32:00;;;;;;;32.40;12.80;;;7.90;99.90;;;;;;5005820;28;20505;-62
2021/11/18 07:34:50;;;;;;;;;;;;;;;;;;;;;
2021/11/18 07:37:16;;;;;;;31.98;12.75;;;7.90;99.90;;;;;;4998902;28;20038;-61
2021/11/18 07:39:41;;;;;;;33.55;12.95;;;7.90;99.90;;;;;;5009840;28;20116;-62
2021/11/18 07:42:07;;;;;;;32.80;12.60;;;7.90;99.90;;;;;;5009736;28;20034;-62
2021/11/18 07:44:32;;;;;;;41.33;14.32;;;7.90;99.90;;;;;;5008856;28;20034;-62
2021/11/18 07:46:58;;;;;;;35.47;14.38;;;7.90;99.90;;;;;;5011811;28;20051;-62
2021/11/18 07:49:24;;;;;;;38.78;15.15;;;7.90;99.90;;;;;;5006402;28;20073;-61
2021/11/18 07:51:53;;;;;;;31.88;12.05;;;7.90;99.90;;;;;;4990117;28;20415;-62
2021/11/18 07:55:09;;;;;;;;;;;;;;;;;;;;;
2021/11/18 07:57:35;;;;;;;38.28;13.35;;;7.90;99.90;;;;;;5011528;28;20033;-62
2021/11/18 08:01:02;;;;;;;33.67;12.40;;;7.90;99.90;;;;;;4996425;28;20549;-61
2021/11/18 08:03:30;;;;;;;36.22;13.27;;;7.90;99.90;;;;;;4951864;29;20399;-61
2021/11/18 08:05:57;;;;;;;37.17;13.30;;;7.90;99.90;;;;;;4953705;28;20032;-61
2021/11/18 08:09:10;;;;;;;;;;;;;;;;;;;;;
2021/11/18 08:11:35;;;;;;;28.60;13.18;;;8.00;99.90;;;;;;5005913;28;20038;-61
2021/11/18 08:14:02;;;;;;;34.58;14.05;;;7.90;99.90;;;;;;4995192;28;20061;-61
2021/11/18 08:16:28;;;;;;;28.17;11.65;;;8.00;99.90;;;;;;4977893;28;20034;-61
2021/11/18 08:18:54;;;;;;;29.23;11.93;;;8.00;99.90;;;;;;4987879;28;20037;-61
2021/11/18 08:21:20;;;;;;;30.52;12.23;;;8.00;99.90;;;;;;4984045;28;20030;-61
2021/11/18 08:23:46;;;;;;;30.45;12.02;;;8.00;99.90;;;;;;4975840;28;20026;-61
2021/11/18 08:26:14;;;;;;;32.97;13.23;;;8.00;99.90;;;;;;4994541;28;20033;-61
2021/11/18 08:28:39;;;;;;;37.55;14.13;;;8.00;99.90;;;;;;4994782;28;20036;-61
2021/11/18 08:31:06;;;;;;;42.25;14.52;;;8.10;99.90;;;;;;4994936;28;20168;-61
2021/11/18 08:33:32;;;;;;;37.17;12.43;;;8.00;99.90;;;;;;4994359;28;20386;-61
2021/11/18 08:35:58;;;;;;;43.22;13.98;;;8.10;99.90;;;;;;4994543;28;20023;-61
2021/11/18 08:38:26;;;;;;;41.30;14.93;;;8.10;99.90;;;;;;4994453;28;20031;-61
2021/11/18 08:41:02;;;;;;;36.55;13.98;;;8.10;99.90;;;;;;4994687;28;20034;-61
2021/11/18 08:43:28;;;;;;;32.15;12.27;;;8.10;99.90;;;;;;4994438;28;20033;-61
2021/11/18 08:45:54;;;;;;;37.70;12.95;;;8.10;99.90;;;;;;4994377;28;20034;-61
2021/11/18 08:48:21;;;;;;;35.97;12.45;;;8.20;99.90;;;;;;4994250;28;20181;-61
2021/11/18 08:50:49;;;;;;;36.45;12.82;;;8.30;99.90;;;;;;4994184;28;20038;-61
2021/11/18 08:53:17;;;;;;;30.70;12.55;;;8.40;99.90;;;;;;4994554;28;20034;-61
2021/11/18 08:56:02;;;;;;;;;;;;;;;;;;;;;
2021/11/18 08:58:31;;;;;;;38.78;13.23;;;8.50;99.90;;;;;;4994731;28;20022;-61
2021/11/18 09:01:54;;;;;;;;;;;;;;;;;;;;;
2021/11/18 09:04:54;;;;;;;32.38;12.35;;;8.50;99.90;;;;;;4929167;29;20496;-61
2021/11/18 09:07:21;;;;;;;27.83;11.02;;;8.60;99.90;;;;;;4864655;29;20035;-61
2021/11/18 09:09:47;;;;;;;27.67;10.88;;;8.70;99.90;;;;;;4980296;28;20044;-61
2021/11/18 09:12:12;;;;;;;36.72;11.32;;;8.70;99.90;;;;;;5007604;28;20038;-61
2021/11/18 09:14:45;;;;;;;30.48;11.70;;;8.80;99.90;;;;;;5013450;28;20410;-61
2021/11/18 09:17:12;;;;;;;39.28;13.23;;;8.90;99.90;;;;;;4989441;28;20117;-61
2021/11/18 09:19:51;;;;;;;30.55;12.40;;;9.00;99.90;;;;;;5013120;28;20028;-61
2021/11/18 09:22:16;;;;;;;29.13;10.65;;;9.00;99.90;;;;;;4997043;28;20029;-61
2021/11/18 09:24:50;;;;;;;31.98;11.35;;;9.00;99.90;;;;;;5013513;28;20025;-61
2021/11/18 09:27:29;;;;;;;25.35;10.20;;;9.20;99.90;;;;;;5013623;28;20096;-61
2021/11/18 09:29:56;;;;;;;26.05;10.85;;;9.30;99.90;;;;;;5013121;28;20104;-61
2021/11/18 09:32:28;;;;;;;28.00;10.75;;;9.30;99.90;;;;;;5009910;28;20546;-61
2021/11/18 09:34:54;;;;;;;25.10;9.90;;;9.50;99.90;;;;;;5011205;28;20145;-61
2021/11/18 09:37:19;;;;;;;27.95;10.57;;;9.60;99.90;;;;;;4998319;28;20109;-61
2021/11/18 09:39:45;;;;;;;25.85;9.90;;;9.70;99.90;;;;;;4991421;28;20038;-61
2021/11/18 09:42:15;;;;;;;25.08;9.77;;;9.90;99.90;;;;;;4991689;28;20033;-61
2021/11/18 09:44:50;;;;;;;26.65;10.70;;;10.10;99.90;;;;;;4990501;28;20034;-61
2021/11/18 09:47:34;;;;;;;28.23;9.80;;;10.20;99.90;;;;;;4993481;28;20085;-61
2021/11/18 09:50:18;;;;;;;23.73;8.95;;;10.20;99.90;;;;;;4989195;28;20022;-61
2021/11/18 09:53:11;;;;;;;26.10;9.85;;;10.30;99.90;;;;;;4993649;28;20034;-62
2021/11/18 09:55:46;;;;;;;26.02;9.50;;;10.40;99.90;;;;;;4993392;28;20541;-62
2021/11/18 09:58:30;;;;;;;24.83;9.43;;;10.50;99.90;;;;;;4993253;28;20037;-62
2021/11/18 10:01:30;;;;;;;32.33;10.10;;;10.80;99.30;;;;;;5006131;28;20029;-62
2021/11/18 10:04:34;;;;;;;32.95;9.90;;;10.90;98.40;;;;;;4981030;28;20093;-62
2021/11/18 10:07:02;;;;;;;21.70;8.43;;;11.10;98.20;;;;;;5004728;28;20498;-61
2021/11/18 10:09:57;;;;;;;26.00;9.23;;;11.40;98.00;;;;;;5006567;28;20034;-61
2021/11/18 10:12:49;;;;;;;;;;;;;;;;;;;;;
2021/11/18 10:15:21;;;;;;;24.98;9.23;;;11.60;96.90;;;;;;4976386;28;20037;-61
2021/11/18 10:18:08;;;;;;;30.50;10.00;;;11.60;96.30;;;;;;4974679;28;20072;-61
2021/11/18 10:20:37;;;;;;;25.92;8.82;;;11.90;96.20;;;;;;4990074;28;20026;-61
2021/11/18 10:23:07;;;;;;;22.10;8.40;;;12.10;95.70;;;;;;4988030;28;20033;-61
2021/11/18 10:25:49;;;;;;;28.10;8.77;;;12.50;95.10;;;;;;4989708;28;20442;-62
2021/11/18 10:28:21;;;;;;;26.40;8.95;;;12.80;94.50;;;;;;4972046;28;20033;-61
2021/11/18 10:31:15;;;;;;;22.42;8.18;;;13.30;93.70;;;;;;4989879;28;20022;-62
2021/11/18 10:33:47;;;;;;;22.10;7.60;;;13.70;92.90;;;;;;4975178;28;20157;-61
2021/11/18 10:36:24;;;;;;;15.20;6.65;;;13.80;91.90;;;;;;4992167;28;20029;-62
2021/11/18 10:39:01;;;;;;;18.00;7.80;;;13.60;91.60;;;;;;4992476;28;20076;-62
2021/11/18 10:41:30;;;;;;;17.17;6.72;;;13.30;91.90;;;;;;4992610;28;20072;-61
2021/11/18 10:44:02;;;;;;;20.52;6.63;;;13.30;92.50;;;;;;4992930;28;20066;-62
2021/11/18 10:46:38;;;;;;;20.77;7.22;;;13.70;92.40;;;;;;4974926;28;20107;-62
2021/11/18 10:49:56;;;;;;;15.25;6.47;;;14.00;91.60;;;;;;4992117;28;20030;-62
2021/11/18 10:52:35;;;;;;;20.80;7.53;;;14.50;91.30;;;;;;4992178;28;20490;-62
2021/11/18 10:55:12;;;;;;;20.83;6.68;;;14.90;90.00;;;;;;4992617;28;20023;-62
2021/11/18 10:57:53;;;;;;;20.83;7.13;;;15.00;88.90;;;;;;4992686;28;20482;-62
2021/11/18 11:00:55;;;;;;;;;;;;;;;;;;;;;
2021/11/18 11:03:32;;;;;;;13.95;6.00;;;15.80;85.90;;;;;;4973503;28;20038;-62
2021/11/18 11:06:17;;;;;;;16.92;5.75;;;16.30;83.30;;;;;;4992679;28;20029;-62
2021/11/18 11:08:53;;;;;;;14.32;5.40;;;16.90;80.90;;;;;;4992162;28;20054;-62
2021/11/18 11:11:46;;;;;;;14.15;5.40;;;17.80;79.40;;;;;;4973329;28;20046;-62
2021/11/18 11:14:17;;;;;;;17.00;5.72;;;18.50;76.40;;;;;;4971680;28;20102;-62
2021/11/18 11:17:26;;;;;;;15.88;6.05;;;19.20;72.00;;;;;;4988968;28;20042;-62
2021/11/18 11:20:07;;;;;;;14.32;5.90;;;19.50;71.00;;;;;;4990298;28;20107;-62
2021/11/18 11:22:40;;;;;;;16.35;5.22;;;19.90;68.10;;;;;;4991511;28;20033;-62
2021/11/18 11:25:05;;;;;;;14.82;6.05;;;20.20;66.90;;;;;;4970009;28;20469;-63
2021/11/18 11:27:46;;;;;;;12.80;4.45;;;20.70;65.50;;;;;;4977641;28;20109;-62
2021/11/18 11:30:40;;;;;;;16.83;5.70;;;21.00;65.20;;;;;;4990681;28;20112;-62
2021/11/18 11:33:31;;;;;;;13.73;5.50;;;21.50;64.00;;;;;;4991072;28;20042;-62
2021/11/18 11:36:33;;;;;;;15.57;5.95;;;22.10;60.90;;;;;;4996140;28;20041;-62
2021/11/18 11:39:20;;;;;;;11.45;4.53;;;22.40;57.70;;;;;;4969044;28;20038;-63
2021/11/18 11:42:43;;;;;;;14.20;4.85;;;22.80;56.70;;;;;;4971175;28;20038;-63
2021/11/18 11:45:19;;;;;;;14.73;4.25;;;23.30;55.30;;;;;;4977321;28;20092;-63
2021/11/18 11:48:27;;;;;;;11.45;4.20;;;23.70;54.60;;;;;;4949030;28;20133;-63
2021/11/18 11:51:19;;;;;;;14.40;4.85;;;24.30;53.90;;;;;;4992152;28;20057;-63
2021/11/18 11:53:50;;;;;;;11.77;4.05;;;24.70;51.60;;;;;;4991668;28;20487;-63
2021/11/18 11:56:33;;;;;;;10.40;4.82;;;24.50;49.80;;;;;;4993802;28;20026;-63
2021/11/18 11:59:01;;;;;;;12.98;4.40;;;24.40;50.50;;;;;;4993201;28;20113;-63
2021/11/18 12:02:07;;;;;;;15.45;5.13;;;24.20;49.90;;;;;;4993761;28;20022;-63
2021/11/18 12:04:48;;;;;;;15.10;5.28;;;24.10;50.80;;;;;;4933765;29;20036;-63
2021/11/18 12:08:09;;;;;;;10.00;4.32;;;24.20;49.80;;;;;;4970838;28;20125;-63
2021/11/18 12:11:11;;;;;;;17.48;5.38;;;24.10;49.90;;;;;;4983706;28;20031;-63
2021/11/18 12:13:54;;;;;;;11.90;4.07;;;23.90;48.60;;;;;;4988625;28;20114;-63
2021/11/18 12:16:36;;;;;;;9.18;3.47;;;23.60;49.70;;;;;;4988680;28;20022;-63
2021/11/18 12:19:22;;;;;;;13.15;4.65;;;23.80;50.50;;;;;;4993001;28;20034;-63
2021/11/18 12:21:48;;;;;;;15.68;4.75;;;23.80;49.10;;;;;;4990068;28;20076;-63
2021/11/18 12:24:22;;;;;;;12.45;4.35;;;23.80;49.00;;;;;;4989239;28;20034;-63
2021/11/18 12:27:09;;;;;;;13.90;4.60;;;23.50;48.90;;;;;;4990332;28;20062;-63
2021/11/18 12:29:40;;;;;;;13.57;4.70;;;23.50;49.80;;;;;;4971042;28;20026;-63
2021/11/18 12:35:13;;;;;;;13.80;3.88;;;23.90;48.80;;;;;;4976263;28;20038;-63
2021/11/18 12:37:47;;;;;;;12.68;4.10;;;23.70;48.60;;;;;;4990812;28;20037;-63
2021/11/18 12:40:35;;;;;;;11.10;4.10;;;24.00;49.20;;;;;;4990609;28;20036;-63
2021/11/18 12:44:04;;;;;;;10.60;3.95;;;24.50;48.30;;;;;;4992571;28;20037;-63
2021/11/18 12:47:28;;;;;;;13.07;4.47;;;24.70;48.10;;;;;;4934193;28;20039;-63
2021/11/18 12:50:11;;;;;;;13.10;4.70;;;25.00;46.90;;;;;;4932168;28;20266;-63
2021/11/18 12:52:41;;;;;;;17.67;5.90;;;24.50;47.30;;;;;;4951467;28;20483;-63
2021/11/18 12:55:15;;;;;;;13.13;4.65;;;24.30;46.90;;;;;;4976908;28;20070;-63
2021/11/18 12:58:15;;;;;;;15.45;4.72;;;24.30;46.60;;;;;;4991854;28;20037;-63
2021/11/18 13:00:53;;;;;;;13.25;4.57;;;24.10;47.10;;;;;;4962419;28;20037;-63
2021/11/18 13:03:43;;;;;;;11.48;4.25;;;24.20;47.80;;;;;;4994360;28;20034;-63
2021/11/18 13:06:10;;;;;;;11.77;4.28;;;24.10;46.90;;;;;;4994326;28;20026;-63
2021/11/18 13:08:38;;;;;;;11.52;4.35;;;23.90;47.50;;;;;;4992196;28;20505;-63
2021/11/18 13:11:41;;;;;;;14.93;4.53;;;23.90;47.10;;;;;;4975021;28;20042;-63
2021/11/18 13:14:15;;;;;;;10.27;4.13;;;23.60;47.00;;;;;;4987205;28;20038;-63
2021/11/18 13:16:46;;;;;;;9.82;4.25;;;23.20;48.70;;;;;;4993868;28;20037;-63
2021/11/18 13:19:57;;;;;;;10.48;3.90;;;23.20;49.50;;;;;;4994223;28;20027;-63
2021/11/18 13:22:39;;;;;;;13.32;4.22;;;23.60;49.30;;;;;;4978547;28;20031;-63
2021/11/18 13:25:26;;;;;;;12.88;5.47;;;24.10;48.10;;;;;;4993908;28;20081;-63
2021/11/18 13:28:29;;;;;;;10.45;4.25;;;24.10;47.70;;;;;;4993852;28;20032;-63
2021/11/18 13:30:58;;;;;;;12.82;4.28;;;24.10;47.70;;;;;;4962241;28;20031;-63